createdAt,value
2023-05-20T00:02:21.798Z,98884.41
2023-05-20T00:04:49.632Z,98881.59
2023-05-20T00:07:17.410Z,98884.41
2023-05-20T00:09:45.176Z,98880.94
2023-05-20T00:12:13.035Z,98885.53
2023-05-20T00:14:40.835Z,98879.38
2023-05-20T00:17:08.631Z,98886.97
2023-05-20T00:19:37.733Z,98883.81
2023-05-20T00:22:05.956Z,98880.75
2023-05-20T00:24:33.716Z,98873.97
2023-05-20T00:27:02.709Z,98872.84
2023-05-20T00:29:30.831Z,98863.50
2023-05-20T00:31:58.697Z,98862.00
2023-05-20T00:34:26.457Z,98864.19
2023-05-20T00:36:55.658Z,98875.84
2023-05-20T00:39:23.482Z,98870.84
2023-05-20T00:41:51.355Z,98874.78
2023-05-20T00:44:19.225Z,98864.34
2023-05-20T00:46:49.856Z,98863.41
2023-05-20T00:49:18.675Z,98862.44
2023-05-20T00:51:47.701Z,98868.59
2023-05-20T00:54:17.288Z,98865.03
2023-05-20T00:56:45.912Z,98860.59
2023-05-20T00:59:13.894Z,98851.78
2023-05-20T01:01:41.880Z,98862.88
2023-05-20T01:04:10.192Z,98863.94
2023-05-20T01:06:38.983Z,98863.72
2023-05-20T01:09:06.802Z,98856.09
2023-05-20T01:11:44.110Z,98858.63
2023-05-20T01:14:14.464Z,98857.75
2023-05-20T01:16:44.106Z,98863.53
2023-05-20T01:19:23.220Z,98862.69
2023-05-20T01:21:54.465Z,98859.59
2023-05-20T01:24:23.746Z,98852.94
2023-05-20T01:26:51.618Z,98853.81
2023-05-20T01:29:19.662Z,98857.13
2023-05-20T01:31:49.131Z,98853.81
2023-05-20T01:34:17.246Z,98857.72
2023-05-20T01:36:47.492Z,98853.50
2023-05-20T01:39:15.462Z,98858.19
2023-05-20T01:41:46.259Z,98856.50
2023-05-20T01:44:14.439Z,98851.28
2023-05-20T01:46:42.647Z,98849.47
2023-05-20T01:49:10.636Z,98860.25
2023-05-20T01:51:38.354Z,98845.31
2023-05-20T01:54:06.119Z,98839.03
2023-05-20T01:56:33.967Z,98843.06
2023-05-20T01:59:03.090Z,98852.88
2023-05-20T02:01:30.969Z,98847.41
2023-05-20T02:03:58.773Z,98845.78
2023-05-20T02:06:26.724Z,98851.75
2023-05-20T02:08:55.903Z,98845.63
2023-05-20T02:11:23.698Z,98841.28
2023-05-20T02:13:51.727Z,98848.44
2023-05-20T02:16:20.938Z,98841.97
2023-05-20T02:18:48.774Z,98841.59
2023-05-20T02:21:18.291Z,98837.03
2023-05-20T02:23:46.502Z,98837.25
2023-05-20T02:26:14.352Z,98832.16
2023-05-20T02:28:46.606Z,98842.16
2023-05-20T02:31:14.958Z,98833.66
2023-05-20T02:33:44.160Z,98834.84
2023-05-20T02:36:12.170Z,98829.66
2023-05-20T02:38:40.033Z,98828.44
2023-05-20T02:41:08.002Z,98820.03
2023-05-20T02:43:37.208Z,98825.69
2023-05-20T02:46:05.202Z,98831.13
2023-05-20T02:48:34.062Z,98829.19
2023-05-20T02:51:03.294Z,98824.75
2023-05-20T02:53:31.246Z,98822.97
2023-05-20T02:55:59.702Z,98825.19
2023-05-20T02:58:27.749Z,98810.38
2023-05-20T03:00:57.810Z,98821.00
2023-05-20T03:03:27.631Z,98816.88
2023-05-20T03:05:55.580Z,98822.59
2023-05-20T03:08:26.440Z,98819.06
2023-05-20T03:10:54.312Z,98819.41
2023-05-20T03:13:22.342Z,98812.97
2023-05-20T03:15:50.440Z,98811.78
2023-05-20T03:18:18.198Z,98826.72
2023-05-20T03:20:47.692Z,98825.28
2023-05-20T03:23:15.711Z,98819.09
2023-05-20T03:25:44.954Z,98825.69
2023-05-20T03:28:12.871Z,98825.69
2023-05-20T03:30:40.962Z,98822.94
2023-05-20T03:33:08.826Z,98819.31
2023-05-20T03:35:37.028Z,98821.38
2023-05-20T03:38:05.287Z,98823.25
2023-05-20T03:40:35.487Z,98823.09
2023-05-20T03:43:05.791Z,98828.84
2023-05-20T03:45:34.636Z,98829.31
2023-05-20T03:48:08.009Z,98830.44
2023-05-20T03:50:36.868Z,98834.25
2023-05-20T03:53:04.745Z,98836.25
2023-05-20T03:55:39.529Z,98837.91
2023-05-20T03:58:09.138Z,98835.56
2023-05-20T04:00:37.287Z,98839.22
2023-05-20T04:03:05.852Z,98842.53
2023-05-20T04:05:33.890Z,98838.66
2023-05-20T04:08:04.810Z,98838.56
2023-05-20T04:10:33.085Z,98835.13
2023-05-20T04:13:00.975Z,98840.50
2023-05-20T04:15:30.788Z,98831.72
2023-05-20T04:18:01.381Z,98833.63
2023-05-20T04:20:29.233Z,98836.00
2023-05-20T04:22:59.092Z,98825.75
2023-05-20T04:25:27.492Z,98826.31
2023-05-20T04:27:57.497Z,98820.84
2023-05-20T04:30:25.445Z,98825.53
2023-05-20T04:32:55.552Z,98825.47
2023-05-20T04:35:26.044Z,98823.38
2023-05-20T04:37:56.135Z,98823.84
2023-05-20T04:40:24.297Z,98814.53
2023-05-20T04:42:52.611Z,98823.06
2023-05-20T04:45:23.261Z,98811.88
2023-05-20T04:47:53.402Z,98809.38
2023-05-20T04:50:22.955Z,98815.75
2023-05-20T04:52:51.691Z,98810.63
2023-05-20T04:55:20.359Z,98808.13
2023-05-20T04:57:48.165Z,98801.66
2023-05-20T05:00:16.342Z,98810.31
2023-05-20T05:02:44.095Z,98806.59
2023-05-20T05:05:12.182Z,98808.88
2023-05-20T05:07:41.961Z,98809.19
2023-05-20T05:10:10.611Z,98804.16
2023-05-20T05:12:38.467Z,98808.59
2023-05-20T05:15:07.321Z,98807.09
2023-05-20T05:17:35.142Z,98804.59
2023-05-20T05:20:03.126Z,98799.63
2023-05-20T05:22:35.452Z,98798.31
2023-05-20T05:25:05.053Z,98799.53
2023-05-20T05:27:33.119Z,98806.22
2023-05-20T05:30:02.062Z,98808.66
2023-05-20T05:32:30.441Z,98803.59
2023-05-20T05:34:58.304Z,98801.38
2023-05-20T05:37:26.576Z,98786.03
2023-05-20T05:39:54.513Z,98788.41
2023-05-20T05:42:23.679Z,98783.09
2023-05-20T05:44:52.283Z,98785.75
2023-05-20T05:47:20.703Z,98794.06
2023-05-20T05:49:49.132Z,98785.66
2023-05-20T05:52:16.852Z,98782.31
2023-05-20T05:54:44.741Z,98785.22
2023-05-20T05:57:12.949Z,98785.53
2023-05-20T05:59:43.590Z,98785.69
2023-05-20T06:02:11.766Z,98780.22
2023-05-20T06:04:39.715Z,98777.84
2023-05-20T06:07:07.664Z,98777.69
2023-05-20T06:09:36.372Z,98773.41
2023-05-20T06:12:04.627Z,98768.75
2023-05-20T06:14:32.928Z,98773.84
2023-05-20T06:17:02.324Z,98771.09
2023-05-20T06:19:30.755Z,98779.50
2023-05-20T06:21:58.975Z,98765.25
2023-05-20T06:24:27.016Z,98772.72
2023-05-20T06:26:54.911Z,98782.72
2023-05-20T06:29:22.998Z,98776.34
2023-05-20T06:31:51.318Z,98777.13
2023-05-20T06:34:20.509Z,98766.38
2023-05-20T06:36:48.365Z,98756.47
2023-05-20T06:39:16.372Z,98763.53
2023-05-20T06:41:45.866Z,98760.84
2023-05-20T06:44:20.649Z,98752.06
2023-05-20T06:47:15.899Z,98749.22
2023-05-20T06:49:47.534Z,98751.78
2023-05-20T06:52:15.518Z,98752.03
2023-05-20T06:54:44.085Z,98759.25
2023-05-20T06:57:12.570Z,98753.16
2023-05-20T06:59:41.702Z,98749.19
2023-05-20T07:02:09.710Z,98750.72
2023-05-20T07:04:37.577Z,98745.78
2023-05-20T07:07:07.012Z,98741.09
2023-05-20T07:09:34.933Z,98731.50
2023-05-20T07:12:03.642Z,98734.66
2023-05-20T07:14:31.487Z,98731.88
2023-05-20T07:16:59.306Z,98731.06
2023-05-20T07:19:27.536Z,98741.78
2023-05-20T07:21:55.452Z,98730.94
2023-05-20T07:24:37.069Z,98731.19
2023-05-20T07:27:06.318Z,98726.22
2023-05-20T07:29:34.178Z,98717.97
2023-05-20T07:32:02.459Z,98725.78
2023-05-20T07:34:30.491Z,98714.41
2023-05-20T07:36:59.111Z,98722.34
2023-05-20T07:39:27.599Z,98718.53
2023-05-20T07:41:56.725Z,98719.09
2023-05-20T07:44:26.639Z,98703.25
2023-05-20T07:46:55.221Z,98710.09
2023-05-20T07:49:23.619Z,98699.25
2023-05-20T07:51:51.611Z,98703.22
2023-05-20T07:54:20.723Z,98710.75
2023-05-20T07:56:51.495Z,98703.94
2023-05-20T07:59:21.410Z,98703.28
2023-05-20T08:01:50.628Z,98691.84
2023-05-20T08:04:21.587Z,98682.97
2023-05-20T08:06:49.667Z,98686.34
2023-05-20T08:09:27.286Z,98673.63
2023-05-20T08:11:57.033Z,98679.03
2023-05-20T08:14:26.488Z,98681.72
2023-05-20T08:16:55.248Z,98671.38
2023-05-20T08:19:23.739Z,98677.41
2023-05-20T08:21:51.636Z,98675.84
2023-05-20T08:24:19.469Z,98674.50
2023-05-20T08:26:47.344Z,98682.50
2023-05-20T08:29:17.207Z,98676.50
2023-05-20T08:31:46.856Z,98674.06
2023-05-20T08:34:15.215Z,98664.00
2023-05-20T08:36:45.187Z,98673.97
2023-05-20T08:39:13.049Z,98676.84
2023-05-20T08:41:40.975Z,98672.69
2023-05-20T08:44:10.964Z,98672.69
2023-05-20T08:46:40.367Z,98669.91
2023-05-20T08:49:10.583Z,98673.56
2023-05-20T08:51:39.552Z,98682.53
2023-05-20T08:54:09.674Z,98676.34
2023-05-20T08:56:39.316Z,98687.44
2023-05-20T08:59:07.615Z,98677.38
2023-05-20T09:01:41.703Z,98688.03
2023-05-20T09:04:11.059Z,98690.84
2023-05-20T09:06:45.838Z,98687.75
2023-05-20T09:09:13.912Z,98682.34
2023-05-20T09:11:42.474Z,98683.50
2023-05-20T09:14:10.332Z,98677.69
2023-05-20T09:16:41.121Z,98677.06
2023-05-20T09:19:09.837Z,98678.31
2023-05-20T09:21:39.933Z,98673.38
2023-05-20T09:24:08.072Z,98664.66
2023-05-20T09:26:36.137Z,98662.56
2023-05-20T09:29:04.033Z,98662.16
2023-05-20T09:31:33.838Z,98667.25
2023-05-20T09:34:02.867Z,98672.56
2023-05-20T09:36:31.866Z,98661.16
2023-05-20T09:39:05.218Z,98661.00
2023-05-20T09:41:39.163Z,98659.63
2023-05-20T09:44:07.733Z,98654.72
2023-05-20T09:46:37.087Z,98654.66
2023-05-20T09:49:06.732Z,98659.84
2023-05-20T09:51:35.428Z,98652.25
2023-05-20T09:54:08.266Z,98656.13
2023-05-20T09:56:37.893Z,98655.94
2023-05-20T09:59:06.804Z,98639.25
2023-05-20T10:01:34.665Z,98651.19
2023-05-20T10:04:04.016Z,98639.47
2023-05-20T10:07:06.364Z,98639.47
2023-05-20T10:09:50.508Z,98634.84
2023-05-20T10:12:28.331Z,98630.28
2023-05-20T10:15:05.424Z,98634.72
2023-05-20T10:17:46.022Z,98639.25
2023-05-20T10:20:14.349Z,98636.22
2023-05-20T10:22:42.214Z,98622.72
2023-05-20T10:25:24.472Z,98624.53
2023-05-20T10:27:52.353Z,98616.63
2023-05-20T10:30:21.829Z,98618.09
2023-05-20T10:32:51.150Z,98621.16
2023-05-20T10:35:23.295Z,98618.22
2023-05-20T10:37:51.101Z,98607.28
2023-05-20T10:40:22.149Z,98605.91
2023-05-20T10:42:50.452Z,98602.22
2023-05-20T10:45:28.540Z,98602.59
2023-05-20T10:47:58.063Z,98593.16
2023-05-20T10:50:30.050Z,98600.09
2023-05-20T10:53:05.222Z,98598.25
2023-05-20T10:55:41.550Z,98596.69
2023-05-20T10:58:10.871Z,98588.97
2023-05-20T11:00:38.928Z,98592.59
2023-05-20T11:03:09.927Z,98592.78
2023-05-20T11:05:40.421Z,98594.22
2023-05-20T11:08:20.516Z,98585.81
2023-05-20T11:10:53.691Z,98576.34
2023-05-20T11:13:21.650Z,98576.28
2023-05-20T11:15:50.489Z,98576.59
2023-05-20T11:18:18.968Z,98582.16
2023-05-20T11:20:47.585Z,98565.47
2023-05-20T11:23:16.707Z,98559.69
2023-05-20T11:25:44.478Z,98555.06
2023-05-20T11:28:15.333Z,98559.00
2023-05-20T11:30:43.838Z,98537.47
2023-05-20T11:33:13.850Z,98538.81
2023-05-20T11:35:47.030Z,98533.16
2023-05-20T11:38:15.516Z,98552.16
2023-05-20T11:40:50.916Z,98552.13
2023-05-20T11:43:21.214Z,98556.94
2023-05-20T11:45:59.291Z,98549.78
2023-05-20T11:48:27.308Z,98547.78
2023-05-20T11:50:56.684Z,98544.31
2023-05-20T11:53:25.321Z,98536.50
2023-05-20T11:55:56.033Z,98533.09
2023-05-20T11:58:26.696Z,98539.94
2023-05-20T12:00:59.447Z,98533.16
2023-05-20T12:03:37.374Z,98535.56
2023-05-20T12:06:05.603Z,98524.91
2023-05-20T12:08:33.377Z,98537.09
2023-05-20T12:11:01.129Z,98530.69
2023-05-20T12:13:30.267Z,98529.72
2023-05-20T12:15:58.069Z,98525.44
2023-05-20T12:18:26.104Z,98516.41
2023-05-20T12:20:53.888Z,98517.34
2023-05-20T12:23:21.794Z,98509.59
2023-05-20T12:25:50.151Z,98510.66
2023-05-20T12:28:18.274Z,98508.81
2023-05-20T12:30:47.562Z,98504.97
2023-05-20T12:33:15.433Z,98502.56
2023-05-20T12:35:44.868Z,98505.44
2023-05-20T12:38:12.648Z,98504.13
2023-05-20T12:40:40.429Z,98510.66
2023-05-20T12:43:08.420Z,98495.59
2023-05-20T12:45:36.216Z,98509.50
2023-05-20T12:48:07.145Z,98504.06
2023-05-20T12:50:35.147Z,98507.34
2023-05-20T12:53:03.200Z,98513.22
2023-05-20T12:55:30.987Z,98508.91
2023-05-20T12:57:58.711Z,98510.69
2023-05-20T13:00:26.677Z,98498.97
2023-05-20T13:02:54.859Z,98491.03
2023-05-20T13:05:24.283Z,98482.09
2023-05-20T13:07:52.117Z,98472.94
2023-05-20T13:10:20.048Z,98487.13
2023-05-20T13:12:47.888Z,98498.38
2023-05-20T13:15:16.145Z,98489.38
2023-05-20T13:17:43.957Z,98474.84
2023-05-20T13:20:13.043Z,98472.72
2023-05-20T13:22:42.191Z,98471.63
2023-05-20T13:25:10.596Z,98483.34
2023-05-20T13:27:38.525Z,98471.28
2023-05-20T13:30:07.554Z,98469.16
2023-05-20T13:32:35.637Z,98472.66
2023-05-20T13:35:03.598Z,98477.69
2023-05-20T13:37:31.317Z,98475.34
2023-05-20T13:40:00.533Z,98462.22
2023-05-20T13:42:28.757Z,98466.13
2023-05-20T13:44:56.585Z,98460.53
2023-05-20T13:47:24.296Z,98471.91
2023-05-20T13:49:52.231Z,98463.59
2023-05-20T13:52:19.984Z,98452.91
2023-05-20T13:54:48.726Z,98451.19
2023-05-20T13:57:17.865Z,98447.03
2023-05-20T13:59:45.764Z,98445.22
2023-05-20T14:02:13.645Z,98445.78
2023-05-20T14:04:44.899Z,98443.88
2023-05-20T14:07:12.807Z,98437.69
2023-05-20T14:09:40.743Z,98436.00
2023-05-20T14:12:09.213Z,98430.22
2023-05-20T14:14:38.348Z,98434.69
2023-05-20T14:17:06.131Z,98420.38
2023-05-20T14:19:34.025Z,98423.97
2023-05-20T14:22:01.971Z,98414.44
2023-05-20T14:24:29.754Z,98415.63
2023-05-20T14:26:57.684Z,98413.75
2023-05-20T14:29:25.623Z,98406.13
2023-05-20T14:31:54.876Z,98406.72
2023-05-20T14:34:22.782Z,98410.72
2023-05-20T14:36:50.670Z,98409.66
2023-05-20T14:39:18.402Z,98406.53
2023-05-20T14:41:46.481Z,98394.38
2023-05-20T14:44:14.340Z,98396.28
2023-05-20T14:46:42.233Z,98387.31
2023-05-20T14:49:11.335Z,98399.59
2023-05-20T14:51:39.186Z,98388.88
2023-05-20T14:54:07.870Z,98379.69
2023-05-20T14:56:35.813Z,98391.69
2023-05-20T14:59:03.545Z,98381.91
2023-05-20T15:01:31.897Z,98391.16
2023-05-20T15:03:59.686Z,98393.69
2023-05-20T15:06:28.835Z,98393.97
2023-05-20T15:08:56.772Z,98391.91
2023-05-20T15:11:24.616Z,98400.13
2023-05-20T15:13:52.420Z,98393.81
2023-05-20T15:16:20.360Z,98390.97
2023-05-20T15:18:48.686Z,98390.84
2023-05-20T15:21:16.432Z,98394.28
2023-05-20T15:23:45.640Z,98400.53
2023-05-20T15:26:13.396Z,98398.66
2023-05-20T15:28:41.916Z,98400.19
2023-05-20T15:31:10.025Z,98407.84
2023-05-20T15:33:37.855Z,98399.47
2023-05-20T15:36:06.600Z,98413.31
2023-05-20T15:38:34.376Z,98410.47
2023-05-20T15:41:03.453Z,98411.16
2023-05-20T15:43:31.236Z,98406.22
2023-05-20T15:45:59.315Z,98405.91
2023-05-20T15:48:28.399Z,98408.47
2023-05-20T15:50:57.341Z,98402.81
2023-05-20T15:53:25.188Z,98402.81
2023-05-20T15:55:53.137Z,98398.88
2023-05-20T15:58:22.330Z,98407.31
2023-05-20T16:00:50.768Z,98402.94
2023-05-20T16:03:18.614Z,98395.44
2023-05-20T16:05:46.674Z,98395.38
2023-05-20T16:08:14.487Z,98400.50
2023-05-20T16:10:42.279Z,98396.84
2023-05-20T16:13:10.093Z,98391.22
2023-05-20T16:15:39.319Z,98389.72
2023-05-20T16:18:07.120Z,98389.06
2023-05-20T16:20:35.075Z,98399.75
2023-05-20T16:23:03.017Z,98400.28
2023-05-20T16:25:31.074Z,98396.75
2023-05-20T16:28:01.017Z,98399.22
2023-05-20T16:30:28.811Z,98393.56
2023-05-20T16:32:58.230Z,98402.94
2023-05-20T16:35:26.024Z,98399.00
2023-05-20T16:37:53.940Z,98402.94
2023-05-20T16:40:21.855Z,98400.75
2023-05-20T16:42:49.728Z,98411.22
2023-05-20T16:45:17.618Z,98399.97
2023-05-20T16:47:45.457Z,98407.97
2023-05-20T16:50:14.668Z,98401.88
2023-05-20T16:52:42.705Z,98398.13
2023-05-20T16:55:13.808Z,98397.03
2023-05-20T16:57:42.702Z,98396.28
2023-05-20T17:00:11.658Z,98393.16
2023-05-20T17:02:39.572Z,98393.38
2023-05-20T17:05:09.418Z,98390.09
2023-05-20T17:07:39.596Z,98385.38
2023-05-20T17:10:07.990Z,98391.38
2023-05-20T17:12:35.859Z,98390.19
2023-05-20T17:15:03.687Z,98398.00
2023-05-20T17:17:31.553Z,98388.31
2023-05-20T17:19:59.488Z,98396.63
2023-05-20T17:22:27.313Z,98401.34
2023-05-20T17:24:56.558Z,98395.75
2023-05-20T17:27:24.346Z,98409.00
2023-05-20T17:29:52.125Z,98401.63
2023-05-20T17:32:19.905Z,98406.34
2023-05-20T17:34:47.759Z,98415.69
2023-05-20T17:37:15.907Z,98410.84
2023-05-20T17:39:44.074Z,98420.25
2023-05-20T17:42:13.239Z,98427.31
2023-05-20T17:44:41.180Z,98422.47
2023-05-20T17:47:08.979Z,98431.56
2023-05-20T17:49:36.866Z,98427.00
2023-05-20T17:52:04.899Z,98431.94
2023-05-20T17:54:32.655Z,98439.97
2023-05-20T17:57:00.624Z,98436.63
2023-05-20T17:59:29.816Z,98435.53
2023-05-20T18:01:57.659Z,98435.41
2023-05-20T18:04:26.272Z,98440.06
2023-05-20T18:06:54.018Z,98439.59
2023-05-20T18:09:21.796Z,98440.03
2023-05-20T18:11:49.626Z,98441.94
2023-05-20T18:14:18.948Z,98433.63
2023-05-20T18:16:48.107Z,98442.94
2023-05-20T18:19:16.324Z,98438.56
2023-05-20T18:21:44.119Z,98432.16
2023-05-20T18:24:12.062Z,98426.44
2023-05-20T18:26:39.936Z,98422.16
2023-05-20T18:29:07.744Z,98422.97
2023-05-20T18:31:35.670Z,98420.31
2023-05-20T18:34:04.931Z,98427.63
2023-05-20T18:36:32.696Z,98430.50
2023-05-20T18:39:00.582Z,98427.66
2023-05-20T18:41:39.407Z,98420.97
2023-05-20T18:44:14.374Z,98423.94
2023-05-20T18:46:42.383Z,98431.00
2023-05-20T18:49:11.679Z,98426.97
2023-05-20T18:51:39.756Z,98428.47
2023-05-20T18:54:07.664Z,98423.91
2023-05-20T18:56:36.109Z,98424.03
2023-05-20T18:59:04.185Z,98424.97
2023-05-20T19:01:33.919Z,98427.59
2023-05-20T19:04:01.936Z,98429.09
2023-05-20T19:06:31.294Z,98422.88
2023-05-20T19:09:00.561Z,98431.38
2023-05-20T19:11:28.961Z,98436.63
2023-05-20T19:13:57.670Z,98431.66
2023-05-20T19:16:26.160Z,98439.25
2023-05-20T19:18:53.991Z,98438.94
2023-05-20T19:21:21.825Z,98442.41
2023-05-20T19:23:51.414Z,98444.78
2023-05-20T19:26:19.449Z,98437.16
2023-05-20T19:28:47.210Z,98441.03
2023-05-20T19:31:20.875Z,98453.78
2023-05-20T19:33:49.332Z,98447.47
2023-05-20T19:36:18.101Z,98441.59
2023-05-20T19:38:46.870Z,98449.50
2023-05-20T19:41:16.207Z,98446.97
2023-05-20T19:43:47.126Z,98451.78
2023-05-20T19:46:15.026Z,98454.97
2023-05-20T19:48:42.840Z,98450.47
2023-05-20T19:51:11.463Z,98448.88
2023-05-20T19:53:39.390Z,98457.94
2023-05-20T19:56:09.087Z,98454.94
2023-05-20T19:58:38.170Z,98466.97
2023-05-20T20:01:06.638Z,98459.41
2023-05-20T20:03:35.031Z,98463.97
2023-05-20T20:06:04.080Z,98459.88
2023-05-20T20:08:32.207Z,98469.91
2023-05-20T20:11:00.044Z,98463.03
2023-05-20T20:13:27.913Z,98463.25
2023-05-20T20:15:57.098Z,98462.03
2023-05-20T20:18:25.005Z,98462.75
2023-05-20T20:20:54.062Z,98459.25
2023-05-20T20:23:21.988Z,98453.50
2023-05-20T20:25:53.099Z,98450.38
2023-05-20T20:28:20.845Z,98453.25
2023-05-20T20:30:48.759Z,98449.28
2023-05-20T20:33:17.897Z,98451.78
2023-05-20T20:35:46.034Z,98455.88
2023-05-20T20:38:14.824Z,98452.16
2023-05-20T20:40:42.794Z,98457.97
2023-05-20T20:43:20.544Z,98448.94
2023-05-20T20:45:53.182Z,98445.22
2023-05-20T20:48:26.608Z,98449.22
2023-05-20T20:50:54.523Z,98451.16
2023-05-20T20:53:22.306Z,98452.72
2023-05-20T20:55:51.351Z,98450.03
2023-05-20T20:58:19.366Z,98455.31
2023-05-20T21:00:48.631Z,98454.50
2023-05-20T21:03:16.856Z,98452.56
2023-05-20T21:05:46.031Z,98451.44
2023-05-20T21:08:13.768Z,98457.81
2023-05-20T21:10:42.178Z,98445.88
2023-05-20T21:13:10.843Z,98454.88
2023-05-20T21:15:38.615Z,98454.88
2023-05-20T21:18:06.614Z,98451.13
2023-05-20T21:20:34.415Z,98450.94
2023-05-20T21:23:03.574Z,98455.97
2023-05-20T21:25:31.340Z,98455.75
2023-05-20T21:27:59.101Z,98446.13
2023-05-20T21:30:26.948Z,98439.00
2023-05-20T21:32:54.773Z,98435.50
2023-05-20T21:35:22.552Z,98426.16
2023-05-20T21:37:50.317Z,98436.66
2023-05-20T21:40:19.576Z,98434.03
2023-05-20T21:42:48.822Z,98433.69
2023-05-20T21:45:17.385Z,98440.56
2023-05-20T21:47:46.245Z,98431.63
2023-05-20T21:50:14.142Z,98438.34
2023-05-20T21:52:42.033Z,98435.50
2023-05-20T21:55:10.963Z,98428.63
2023-05-20T21:57:40.160Z,98422.69
2023-05-20T22:00:14.162Z,98428.22
2023-05-20T22:02:42.142Z,98417.19
2023-05-20T22:05:11.780Z,98420.00
2023-05-20T22:07:41.707Z,98418.50
2023-05-20T22:10:10.459Z,98420.28
2023-05-20T22:12:39.089Z,98412.84
2023-05-20T22:15:09.448Z,98412.06
2023-05-20T22:17:38.145Z,98408.50
2023-05-20T22:20:08.495Z,98407.78
2023-05-20T22:22:36.730Z,98400.31
2023-05-20T22:25:04.890Z,98404.91
2023-05-20T22:27:32.765Z,98401.34
2023-05-20T22:30:00.652Z,98403.09
2023-05-20T22:32:29.905Z,98397.03
2023-05-20T22:34:58.126Z,98404.03
2023-05-20T22:37:28.819Z,98392.94
2023-05-20T22:39:56.801Z,98394.78
2023-05-20T22:42:25.016Z,98403.91
2023-05-20T22:44:52.774Z,98389.66
2023-05-20T22:47:20.712Z,98391.31
2023-05-20T22:49:50.830Z,98392.25
2023-05-20T22:52:18.822Z,98387.44
2023-05-20T22:54:46.804Z,98386.38
2023-05-20T22:57:14.540Z,98389.53
2023-05-20T22:59:42.387Z,98386.06
2023-05-20T23:02:10.246Z,98390.31
2023-05-20T23:04:38.220Z,98386.97
2023-05-20T23:07:07.376Z,98391.34
2023-05-20T23:09:35.182Z,98391.13
2023-05-20T23:12:02.882Z,98393.44
2023-05-20T23:14:30.629Z,98380.25
2023-05-20T23:16:58.409Z,98383.41
2023-05-20T23:19:26.351Z,98375.06
2023-05-20T23:21:54.203Z,98371.84
2023-05-20T23:24:23.442Z,98368.00
2023-05-20T23:26:51.320Z,98367.63
2023-05-20T23:29:19.064Z,98364.78
2023-05-20T23:31:48.800Z,98357.88
2023-05-20T23:34:18.521Z,98358.94
2023-05-20T23:36:46.799Z,98361.56
2023-05-20T23:39:16.217Z,98360.78
2023-05-20T23:41:47.367Z,98361.00
2023-05-20T23:44:16.025Z,98365.84
2023-05-20T23:46:44.817Z,98361.94
2023-05-20T23:49:12.701Z,98363.47
2023-05-20T23:51:40.656Z,98357.16
2023-05-20T23:54:08.526Z,98358.19
2023-05-20T23:56:36.734Z,98351.94
2023-05-20T23:59:05.929Z,98354.00
